Time;durP1;ratioP1;P1;durP2;ratioP2;P2;SDS_P1;SDS_P2;PMS_P1;PMS_P2;Temp;Humidity;BMP_temperature;BMP_pressure;BME280_temperature;BME280_humidity;BME280_pressure;Samples;Min_cycle;Max_cycle;Signal;HPM_P1;HPM_P2
2024/01/19 00:04:32;;;;;;;16.00;10.00;;;;;;;2.75;67.15;97916.95;231726;203;139406;-56
2024/01/19 00:09:35;;;;;;;17.90;10.00;;;;;;;2.73;66.98;97923.35;231796;198;155547;-56
2024/01/19 00:14:39;;;;;;;15.80;9.20;;;;;;;2.75;67.02;97938.11;231718;202;142239;-54
2024/01/19 00:19:42;;;;;;;12.90;8.40;;;;;;;2.75;66.72;97953.90;231557;198;139600;-55
2024/01/19 00:24:45;;;;;;;14.00;8.90;;;;;;;2.69;66.76;97961.02;231761;205;153820;-53
2024/01/19 00:29:48;;;;;;;13.50;8.80;;;;;;;2.63;66.90;97968.48;231720;198;138250;-56
2024/01/19 00:34:51;;;;;;;13.10;8.70;;;;;;;2.57;67.12;97990.66;231832;201;138601;-56
2024/01/19 00:39:54;;;;;;;13.10;8.00;;;;;;;2.56;67.00;98014.16;231826;198;153267;-56
2024/01/19 00:44:57;;;;;;;12.70;8.20;;;;;;;2.53;67.01;98029.52;231625;198;138280;-56
2024/01/19 00:50:03;;;;;;;12.50;7.70;;;;;;;2.53;67.03;98035.61;231359;198;141100;-57
2024/01/19 00:55:06;;;;;;;14.30;8.80;;;;;;;2.49;66.76;98042.11;231771;198;154998;-56
2024/01/19 01:00:10;;;;;;;12.40;8.40;;;;;;;2.45;66.80;98033.05;231910;197;138587;-56
2024/01/19 01:05:13;;;;;;;15.30;9.30;;;;;;;2.46;66.84;98040.89;231983;204;138131;-56
2024/01/19 01:10:16;;;;;;;12.90;8.60;;;;;;;2.44;66.60;98045.17;231934;201;153280;-56
2024/01/19 01:15:19;;;;;;;15.00;9.10;;;;;;;2.40;66.60;98049.75;231865;199;137741;-56
2024/01/19 01:20:22;;;;;;;14.40;8.50;;;;;;;2.39;66.76;98056.56;231872;201;139178;-54
2024/01/19 01:25:26;;;;;;;12.80;8.60;;;;;;;2.40;66.75;98058.13;231737;198;153971;-56
2024/01/19 01:30:29;;;;;;;14.70;8.40;;;;;;;2.42;66.67;98058.91;231959;204;137930;-57
2024/01/19 01:35:32;;;;;;;13.10;7.40;;;;;;;2.42;66.89;98081.48;232106;202;142511;-56
2024/01/19 01:40:35;;;;;;;11.90;7.50;;;;;;;2.43;66.45;98094.75;231801;198;155047;-57
2024/01/19 01:45:38;;;;;;;12.50;7.60;;;;;;;2.43;66.42;98104.55;231883;205;142669;-56
2024/01/19 01:50:42;;;;;;;12.30;7.30;;;;;;;2.42;66.19;98108.27;231872;198;138290;-54
2024/01/19 01:55:46;;;;;;;11.80;7.80;;;;;;;2.37;66.58;98111.11;231771;204;155564;-56
2024/01/19 02:00:50;;;;;;;14.20;8.40;;;;;;;2.34;67.09;98118.05;231905;204;137705;-56
2024/01/19 02:05:54;;;;;;;13.00;8.50;;;;;;;2.34;67.30;98123.33;232298;202;138522;-54
2024/01/19 02:10:57;;;;;;;14.40;8.20;;;;;;;2.36;67.51;98126.05;231913;198;153163;-54
2024/01/19 02:16:00;;;;;;;13.30;8.80;;;;;;;2.46;66.96;98136.63;231749;198;140212;-56
2024/01/19 02:21:04;;;;;;;14.40;8.90;;;;;;;2.55;66.66;98137.77;231406;201;138800;-54
2024/01/19 02:26:08;;;;;;;14.00;9.10;;;;;;;2.61;66.32;98139.64;231836;202;153304;-56
2024/01/19 02:31:11;;;;;;;15.00;9.60;;;;;;;2.60;66.06;98149.30;231811;198;138892;-56
2024/01/19 02:36:14;;;;;;;16.50;9.70;;;;;;;2.55;66.07;98149.36;231902;205;138529;-57
2024/01/19 02:41:17;;;;;;;16.50;11.10;;;;;;;2.51;65.69;98153.19;231704;205;153517;-55
2024/01/19 02:46:22;;;;;;;16.30;10.60;;;;;;;2.46;65.90;98162.34;231835;198;138283;-56
2024/01/19 02:51:25;;;;;;;18.50;12.20;;;;;;;2.42;66.20;98170.95;231451;202;137994;-55
2024/01/19 02:56:28;;;;;;;19.60;12.20;;;;;;;2.35;66.35;98170.34;231793;198;154281;-53
2024/01/19 03:01:31;;;;;;;17.40;11.60;;;;;;;2.31;66.44;98173.13;231707;198;139089;-56
2024/01/19 03:06:34;;;;;;;23.20;12.20;;;;;;;2.29;66.41;98179.69;231775;199;138855;-54
2024/01/19 03:11:37;;;;;;;22.00;12.70;;;;;;;2.30;66.52;98189.10;231868;198;154683;-57
2024/01/19 03:16:43;;;;;;;21.60;12.90;;;;;;;2.29;66.31;98205.77;231779;205;138090;-57
2024/01/19 03:21:47;;;;;;;21.80;12.90;;;;;;;2.30;66.26;98205.37;231691;198;138212;-55
2024/01/19 03:26:50;;;;;;;19.70;12.40;;;;;;;2.30;66.23;98216.07;231698;199;153623;-57
2024/01/19 03:31:53;;;;;;;20.70;13.00;;;;;;;2.28;66.27;98223.52;231733;202;138630;-55
2024/01/19 03:37:03;;;;;;;20.40;12.80;;;;;;;2.24;66.36;98238.71;231737;198;137695;-57
2024/01/19 03:42:06;;;;;;;21.00;13.50;;;;;;;2.23;66.34;98249.61;231725;205;153954;-57
2024/01/19 03:47:09;;;;;;;23.10;14.60;;;;;;;2.22;66.50;98248.96;231848;205;137448;-57
2024/01/19 03:52:13;;;;;;;27.10;14.00;;;;;;;2.21;66.48;98264.40;231779;198;139948;-56
2024/01/19 03:57:16;;;;;;;22.70;14.10;;;;;;;2.16;66.43;98268.27;231686;198;153205;-57
2024/01/19 04:02:19;;;;;;;22.90;13.80;;;;;;;2.14;66.54;98283.58;231733;198;138335;-54
2024/01/19 04:07:22;;;;;;;23.00;13.20;;;;;;;2.11;66.43;98298.57;231799;202;138624;-56
2024/01/19 04:12:25;;;;;;;22.70;13.20;;;;;;;2.06;66.13;98311.88;231706;199;153223;-54
2024/01/19 04:17:28;;;;;;;23.00;14.70;;;;;;;2.04;65.67;98326.13;231830;197;138156;-56
2024/01/19 04:22:31;;;;;;;24.80;13.30;;;;;;;2.04;65.59;98331.89;231731;203;137855;-56
2024/01/19 04:27:34;;;;;;;21.50;12.80;;;;;;;1.94;64.16;98338.05;231759;198;156585;-57
2024/01/19 04:32:37;;;;;;;20.70;12.30;;;;;;;1.83;63.55;98330.96;231618;198;138167;-55
2024/01/19 04:37:41;;;;;;;23.20;13.40;;;;;;;1.86;62.87;98338.17;231717;205;138988;-57
2024/01/19 04:42:44;;;;;;;20.10;12.80;;;;;;;1.93;62.55;98333.20;231625;198;153379;-57
2024/01/19 04:47:47;;;;;;;22.90;13.20;;;;;;;2.04;61.98;98353.94;231780;198;138542;-57
2024/01/19 04:52:50;;;;;;;24.40;13.00;;;;;;;1.99;61.23;98393.13;231883;198;138026;-56
2024/01/19 04:57:53;;;;;;;23.30;13.10;;;;;;;1.89;60.94;98400.51;231776;202;154036;-57
2024/01/19 05:02:56;;;;;;;20.70;12.40;;;;;;;1.84;61.07;98390.03;231813;205;139098;-57
2024/01/19 05:08:00;;;;;;;20.90;12.00;;;;;;;1.84;61.19;98398.96;231615;198;138605;-53
2024/01/19 05:13:03;;;;;;;20.30;12.80;;;;;;;1.79;60.75;98413.66;231248;202;156362;-56
2024/01/19 05:18:06;;;;;;;24.10;13.70;;;;;;;1.74;61.01;98433.77;231822;198;137986;-57
2024/01/19 05:23:10;;;;;;;23.30;13.30;;;;;;;1.72;61.47;98445.91;232012;198;139863;-56
2024/01/19 05:28:13;;;;;;;23.80;13.50;;;;;;;1.72;61.74;98447.33;231834;202;153823;-56
2024/01/19 05:33:16;;;;;;;20.40;12.60;;;;;;;1.70;62.02;98456.81;231792;199;138604;-56
2024/01/19 05:38:19;;;;;;;21.40;12.20;;;;;;;1.73;61.74;98455.33;231828;202;139652;-57
2024/01/19 05:43:23;;;;;;;25.40;13.20;;;;;;;1.69;61.77;98469.27;231950;197;153150;-57
2024/01/19 05:48:26;;;;;;;18.50;11.80;;;;;;;1.68;61.73;98483.84;231891;198;138102;-55
2024/01/19 05:53:29;;;;;;;21.70;12.20;;;;;;;1.70;61.79;98492.84;232045;198;138400;-56
2024/01/19 05:58:32;;;;;;;21.30;12.20;;;;;;;1.70;61.82;98495.46;231739;205;153912;-57
2024/01/19 06:03:35;;;;;;;20.10;12.10;;;;;;;1.70;61.85;98497.40;231608;198;142644;-56
2024/01/19 06:08:39;;;;;;;16.80;11.50;;;;;;;1.68;61.93;98504.81;231720;202;138819;-57
2024/01/19 06:13:42;;;;;;;18.50;12.20;;;;;;;1.71;62.05;98517.48;231683;205;153401;-55
2024/01/19 06:18:45;;;;;;;18.40;10.90;;;;;;;1.71;62.01;98535.67;231217;198;138663;-55
2024/01/19 06:23:48;;;;;;;18.30;11.20;;;;;;;1.70;62.13;98544.98;231834;201;138148;-56
2024/01/19 06:28:51;;;;;;;19.30;11.40;;;;;;;1.65;62.19;98553.52;231833;201;153547;-56
2024/01/19 06:33:54;;;;;;;15.20;10.20;;;;;;;1.60;62.39;98561.04;231757;198;137892;-57
2024/01/19 06:38:57;;;;;;;17.30;9.90;;;;;;;1.60;62.19;98561.36;231696;198;140721;-56
2024/01/19 06:44:01;;;;;;;18.10;10.70;;;;;;;1.51;62.43;98561.50;231630;202;153375;-52
2024/01/19 06:49:04;;;;;;;18.90;10.80;;;;;;;1.46;62.71;98572.66;231741;198;140477;-56
2024/01/19 06:54:08;;;;;;;18.60;10.50;;;;;;;1.51;62.60;98573.94;231677;205;138445;-56
2024/01/19 06:59:11;;;;;;;16.90;10.50;;;;;;;1.54;62.75;98576.44;231878;197;153859;-56
2024/01/19 07:04:14;;;;;;;13.40;9.10;;;;;;;1.58;62.09;98590.47;231689;205;139864;-56
2024/01/19 07:09:18;;;;;;;71.60;47.50;;;;;;;1.56;61.72;98584.58;231748;205;137527;-57
2024/01/19 07:14:21;;;;;;;32.00;20.10;;;;;;;1.73;62.59;98575.08;231643;205;153690;-57
2024/01/19 07:19:25;;;;;;;26.40;16.70;;;;;;;1.76;61.43;98580.59;231586;205;138637;-56
2024/01/19 07:24:32;;;;;;;26.30;18.20;;;;;;;1.69;60.95;98584.48;231774;198;138693;-57
2024/01/19 07:29:35;;;;;;;13.50;7.60;;;;;;;1.73;61.00;98598.89;231843;198;153112;-56
2024/01/19 07:34:38;;;;;;;11.70;7.30;;;;;;;1.67;60.57;98609.58;231666;205;138851;-57
2024/01/19 07:39:42;;;;;;;9.50;6.10;;;;;;;1.61;60.47;98609.05;231694;205;139359;-57
2024/01/19 07:44:45;;;;;;;10.40;6.20;;;;;;;1.56;60.24;98614.13;231702;198;152838;-57
2024/01/19 07:49:52;;;;;;;11.60;6.70;;;;;;;1.55;60.15;98608.05;231664;198;138360;-57
2024/01/19 07:54:55;;;;;;;9.00;6.10;;;;;;;1.58;60.15;98607.40;231719;201;137743;-56
2024/01/19 07:59:58;;;;;;;10.60;6.60;;;;;;;1.64;59.80;98612.12;231733;201;153427;-56
2024/01/19 08:05:02;;;;;;;24.60;15.40;;;;;;;1.64;59.85;98625.91;231801;198;138856;-56
2024/01/19 08:10:06;;;;;;;17.10;10.50;;;;;;;1.80;62.26;98630.30;231721;199;138783;-56
2024/01/19 08:15:10;;;;;;;15.30;7.60;;;;;;;1.91;60.19;98626.42;231756;198;152983;-55
2024/01/19 08:20:13;;;;;;;12.60;7.80;;;;;;;1.85;59.77;98634.67;231657;198;137751;-56
2024/01/19 08:25:16;;;;;;;13.40;7.90;;;;;;;1.78;59.76;98640.34;231755;198;138813;-56
2024/01/19 08:30:20;;;;;;;11.90;7.40;;;;;;;1.77;59.48;98649.31;231817;198;155130;-55
2024/01/19 08:35:23;;;;;;;14.00;7.90;;;;;;;1.72;59.16;98657.30;231653;198;138560;-53
2024/01/19 08:40:26;;;;;;;15.00;7.50;;;;;;;1.77;58.71;98670.44;231652;198;138313;-55
2024/01/19 08:45:29;;;;;;;15.10;8.00;;;;;;;1.82;58.43;98688.48;231739;202;153995;-55
2024/01/19 08:50:34;;;;;;;12.80;8.20;;;;;;;1.81;58.12;98701.45;231685;198;139677;-55
2024/01/19 08:55:39;;;;;;;16.80;8.60;;;;;;;1.86;57.96;98727.50;231789;198;139368;-56
2024/01/19 09:00:42;;;;;;;16.50;11.10;;;;;;;1.98;59.08;98745.86;231745;198;153820;-56
2024/01/19 09:05:45;;;;;;;15.50;8.80;;;;;;;2.07;58.06;98760.42;231667;205;138337;-55
2024/01/19 09:10:49;;;;;;;14.60;8.80;;;;;;;2.13;57.60;98774.75;231827;198;137669;-56
2024/01/19 09:15:53;;;;;;;15.00;8.50;;;;;;;2.08;57.45;98784.02;231608;202;156076;-54
2024/01/19 09:20:56;;;;;;;14.70;8.50;;;;;;;2.05;57.41;98799.33;231684;205;137778;-54
2024/01/19 09:26:00;;;;;;;202.50;121.80;;;;;;;2.09;57.74;98798.35;231754;202;139566;-53
2024/01/19 09:31:03;;;;;;;34.90;18.90;;;;;;;2.44;59.95;98799.83;231756;198;153328;-54
2024/01/19 09:36:07;;;;;;;17.30;10.50;;;;;;;2.49;57.23;98800.71;231350;198;152630;-55
2024/01/19 09:41:19;;;;;;;16.90;9.60;;;;;;;2.23;56.50;98813.46;231682;198;137691;-56
2024/01/19 09:46:28;;;;;;;14.40;8.50;;;;;;;2.00;56.32;98827.47;231413;198;154427;-55
2024/01/19 09:51:55;;;;;;;13.90;8.50;;;;;;;1.84;56.49;98838.81;231423;199;138416;-55
2024/01/19 09:57:02;;;;;;;16.50;9.90;;;;;;;1.82;56.55;98846.05;231467;205;138716;-54
2024/01/19 10:02:06;;;;;;;14.40;8.90;;;;;;;1.79;56.32;98847.38;231566;202;154206;-57
2024/01/19 10:07:10;;;;;;;15.10;8.80;;;;;;;1.74;56.36;98844.55;231525;205;138114;-54
2024/01/19 10:12:14;;;;;;;13.60;8.80;;;;;;;1.65;56.44;98839.90;231620;202;137796;-57
2024/01/19 10:17:18;;;;;;;13.80;9.30;;;;;;;1.72;56.81;98824.34;231665;203;154055;-56
2024/01/19 10:22:27;;;;;;;19.00;10.20;;;;;;;1.75;56.87;98831.40;231621;198;138535;-56
2024/01/19 10:27:38;;;;;;;16.60;9.70;;;;;;;1.74;57.24;98827.07;231575;205;138349;-56
2024/01/19 10:32:44;;;;;;;20.90;11.70;;;;;;;1.88;57.11;98838.19;231483;198;154284;-57
2024/01/19 10:37:49;;;;;;;22.40;13.30;;;;;;;2.08;57.04;98838.07;231566;198;138347;-57
2024/01/19 10:42:55;;;;;;;27.70;15.20;;;;;;;2.22;56.64;98839.23;231541;198;138295;-57
2024/01/19 10:48:01;;;;;;;22.00;13.10;;;;;;;2.13;56.62;98830.06;231742;204;153288;-57
2024/01/19 10:53:10;;;;;;;;;;;;;;;2.13;56.73;98825.69;231638;206;138529;-56
2024/01/19 10:58:13;;;;;;;22.30;12.90;;;;;;;2.28;56.88;98827.14;231639;202;138527;-53
2024/01/19 11:03:17;;;;;;;29.10;16.30;;;;;;;2.46;57.03;98830.58;231505;205;153432;-57
2024/01/19 11:08:20;;;;;;;24.90;13.20;;;;;;;2.44;56.65;98832.59;231625;199;138090;-56
2024/01/19 11:13:25;;;;;;;23.60;12.60;;;;;;;2.45;56.95;98831.48;231536;199;138564;-55
2024/01/19 11:18:29;;;;;;;20.50;13.20;;;;;;;2.59;56.99;98840.16;231709;197;153411;-54
2024/01/19 11:23:34;;;;;;;22.30;12.50;;;;;;;2.65;56.64;98845.55;231720;202;138686;-56
2024/01/19 11:28:43;;;;;;;21.20;12.80;;;;;;;2.59;56.84;98859.58;231574;206;138446;-57
2024/01/19 11:33:49;;;;;;;22.00;11.70;;;;;;;2.63;56.80;98863.30;231683;205;153133;-56
2024/01/19 11:38:52;;;;;;;21.80;13.10;;;;;;;2.54;56.95;98854.48;231611;205;138081;-57
2024/01/19 11:43:56;;;;;;;22.60;12.50;;;;;;;2.56;57.47;98852.48;231614;203;138098;-57
2024/01/19 11:48:59;;;;;;;24.60;13.40;;;;;;;2.57;57.57;98855.44;231642;199;154347;-57
2024/01/19 11:54:04;;;;;;;21.90;12.60;;;;;;;2.55;57.46;98851.13;231585;203;138122;-57
2024/01/19 11:59:07;;;;;;;20.90;12.20;;;;;;;2.52;57.63;98855.59;231889;199;138592;-55
2024/01/19 12:04:14;;;;;;;19.50;11.90;;;;;;;2.51;57.34;98850.36;231610;198;153187;-57
2024/01/19 12:09:17;;;;;;;22.90;11.50;;;;;;;2.55;57.77;98846.04;231568;198;138386;-56
2024/01/19 12:14:23;;;;;;;23.50;12.50;;;;;;;2.59;57.62;98853.80;231607;203;138438;-56
2024/01/19 12:19:26;;;;;;;21.40;12.00;;;;;;;2.60;57.67;98850.95;231578;198;153430;-57
2024/01/19 12:24:29;;;;;;;18.30;11.30;;;;;;;2.63;57.60;98859.45;231571;206;137152;-56
2024/01/19 12:29:36;;;;;;;18.60;11.30;;;;;;;2.52;57.66;98860.33;231817;201;138380;-57
2024/01/19 12:34:40;;;;;;;23.60;12.60;;;;;;;2.45;57.94;98873.52;231604;198;153218;-57
2024/01/19 12:39:43;;;;;;;20.20;12.20;;;;;;;2.36;58.20;98880.09;231603;198;138365;-57
2024/01/19 12:44:46;;;;;;;22.00;12.70;;;;;;;2.37;58.44;98888.45;231619;203;137423;-57
2024/01/19 12:49:50;;;;;;;20.70;12.00;;;;;;;2.43;58.52;98898.27;231582;199;153317;-54
2024/01/19 12:55:07;;;;;;;19.10;12.00;;;;;;;2.34;58.61;98906.25;231625;205;138306;-53
2024/01/19 13:00:14;;;;;;;26.70;13.40;;;;;;;2.31;59.08;98914.04;231588;199;139086;-56
2024/01/19 13:05:30;;;;;;;22.70;14.00;;;;;;;2.34;59.24;98919.20;231645;203;154396;-56
2024/01/19 13:10:34;;;;;;;26.40;13.80;;;;;;;2.33;59.25;98921.68;231544;199;141983;-54
2024/01/19 13:15:37;;;;;;;22.40;13.60;;;;;;;2.28;59.54;98923.93;231535;198;139756;-55
2024/01/19 13:20:41;;;;;;;27.50;14.00;;;;;;;2.25;59.75;98928.41;231517;198;154682;-56
2024/01/19 13:25:55;;;;;;;24.80;14.10;;;;;;;2.16;59.90;98933.77;231503;205;138552;-56
2024/01/19 13:30:58;;;;;;;27.00;15.00;;;;;;;2.18;60.11;98939.81;231562;198;138558;-56
2024/01/19 13:36:01;;;;;;;27.70;15.50;;;;;;;2.14;60.30;98939.21;231487;198;155496;-56
2024/01/19 13:41:08;;;;;;;27.10;15.80;;;;;;;2.08;60.52;98945.17;231515;199;139145;-54
2024/01/19 13:46:13;;;;;;;25.20;15.80;;;;;;;2.00;60.90;98949.08;231447;206;138611;-56
2024/01/19 13:51:17;;;;;;;25.20;15.80;;;;;;;1.97;61.10;98952.84;231485;198;154116;-56
2024/01/19 13:56:20;;;;;;;28.00;16.00;;;;;;;1.91;61.35;98950.39;231530;202;138208;-53
2024/01/19 14:01:23;;;;;;;27.40;15.10;;;;;;;1.91;61.54;98955.63;231597;203;138449;-56
2024/01/19 14:06:27;;;;;;;24.70;14.80;;;;;;;1.84;61.83;98957.08;231550;202;154223;-55
2024/01/19 14:11:30;;;;;;;28.30;14.70;;;;;;;1.76;62.31;98956.24;231672;198;138418;-56
2024/01/19 14:16:35;;;;;;;25.70;13.90;;;;;;;1.77;62.39;98964.79;231488;198;138956;-56
2024/01/19 14:21:39;;;;;;;18.30;10.60;;;;;;;1.75;62.49;98965.55;231406;206;154656;-56
2024/01/19 14:26:43;;;;;;;21.30;13.80;;;;;;;1.72;62.61;98972.98;231419;198;138478;-56
2024/01/19 14:31:46;;;;;;;27.60;14.40;;;;;;;1.71;62.82;98974.23;231579;198;140155;-56
2024/01/19 14:36:49;;;;;;;21.00;12.50;;;;;;;1.76;62.87;98973.38;231531;199;153425;-56
2024/01/19 14:41:53;;;;;;;22.40;12.90;;;;;;;1.79;62.61;98976.60;231454;199;139372;-61
2024/01/19 14:46:56;;;;;;;22.00;12.30;;;;;;;1.80;62.38;98981.30;231630;200;141079;-56
2024/01/19 14:52:00;;;;;;;24.20;12.80;;;;;;;1.80;62.39;98981.48;231490;206;153556;-54
2024/01/19 14:57:05;;;;;;;21.70;12.30;;;;;;;1.77;62.28;98985.79;231396;198;138196;-56
2024/01/19 15:02:08;;;;;;;22.60;13.70;;;;;;;1.71;62.30;98988.20;231483;199;138100;-56
2024/01/19 15:07:14;;;;;;;24.50;13.50;;;;;;;1.66;62.46;99004.94;231447;199;152987;-56
2024/01/19 15:12:17;;;;;;;29.70;14.50;;;;;;;1.60;62.64;99009.48;231538;199;138425;-56
2024/01/19 15:17:21;;;;;;;29.00;14.80;;;;;;;1.56;62.64;99013.96;231667;198;138310;-53
2024/01/19 15:22:26;;;;;;;25.30;14.50;;;;;;;1.36;62.99;99020.77;231540;198;155348;-55
2024/01/19 15:27:29;;;;;;;28.80;17.10;;;;;;;1.21;63.29;99029.70;231547;205;138458;-53
2024/01/19 15:32:36;;;;;;;32.10;18.00;;;;;;;1.15;63.56;99036.98;231549;198;139525;-56
2024/01/19 15:37:39;;;;;;;34.90;19.60;;;;;;;1.08;63.53;99047.48;231461;199;154685;-54
2024/01/19 15:42:42;;;;;;;37.90;19.70;;;;;;;0.99;63.79;99051.35;231452;198;137998;-53
2024/01/19 15:47:46;;;;;;;37.00;19.90;;;;;;;0.92;63.89;99056.40;231475;203;139707;-54
2024/01/19 15:52:54;;;;;;;39.50;20.70;;;;;;;0.92;64.10;99060.08;231528;199;153272;-55
2024/01/19 15:57:57;;;;;;;39.20;20.80;;;;;;;0.90;64.15;99067.80;231438;198;138253;-54
2024/01/19 16:03:01;;;;;;;35.50;19.10;;;;;;;0.89;64.20;99074.46;231555;199;138189;-54
2024/01/19 16:08:05;;;;;;;36.70;20.40;;;;;;;0.87;64.22;99080.61;231566;199;154370;-55
2024/01/19 16:13:08;;;;;;;42.50;21.90;;;;;;;0.89;64.06;99088.42;231475;203;138198;-55
2024/01/19 16:18:11;;;;;;;34.30;19.20;;;;;;;0.92;64.06;99094.65;231619;197;138290;-55
2024/01/19 16:23:14;;;;;;;34.20;19.80;;;;;;;0.94;63.83;99106.83;231337;203;153245;-55
2024/01/19 16:28:17;;;;;;;40.70;20.30;;;;;;;0.97;63.69;99111.84;231553;198;140692;-55
2024/01/19 16:33:20;;;;;;;40.90;20.80;;;;;;;0.98;63.68;99118.45;231561;199;138083;-55
2024/01/19 16:38:29;;;;;;;40.40;21.10;;;;;;;0.98;63.54;99122.14;231557;198;153242;-55
2024/01/19 16:43:32;;;;;;;38.60;19.80;;;;;;;0.98;63.42;99132.43;231538;198;138157;-55
2024/01/19 16:48:36;;;;;;;37.40;19.70;;;;;;;0.92;63.49;99141.11;230861;203;138678;-55
2024/01/19 16:53:40;;;;;;;41.40;20.50;;;;;;;0.93;63.52;99155.23;231612;199;153652;-55
2024/01/19 16:58:43;;;;;;;36.00;19.40;;;;;;;0.92;63.43;99164.88;231452;198;138089;-55
2024/01/19 17:03:47;;;;;;;43.30;21.20;;;;;;;0.92;63.50;99171.69;231549;199;138585;-54
2024/01/19 17:08:50;;;;;;;39.70;19.80;;;;;;;0.92;63.40;99176.05;231558;205;153392;-53
2024/01/19 17:13:54;;;;;;;40.90;22.40;;;;;;;0.86;63.46;99187.52;231525;198;139359;-55
2024/01/19 17:18:58;;;;;;;40.20;21.60;;;;;;;0.82;63.55;99193.38;231599;203;138152;-53
2024/01/19 17:24:03;;;;;;;44.40;22.30;;;;;;;0.82;63.47;99203.67;231493;202;154084;-54
2024/01/19 17:29:07;;;;;;;39.70;20.20;;;;;;;0.76;63.51;99216.71;231665;202;138604;-55
2024/01/19 17:34:10;;;;;;;39.70;21.90;;;;;;;0.74;63.49;99220.59;230930;199;140366;-53
2024/01/19 17:39:15;;;;;;;43.40;20.80;;;;;;;0.75;63.60;99226.52;231553;198;153389;-53
2024/01/19 17:44:19;;;;;;;44.30;22.80;;;;;;;0.63;63.65;99234.23;231512;198;137867;-53
2024/01/19 17:49:23;;;;;;;42.60;22.90;;;;;;;0.50;64.08;99243.04;231544;206;138648;-52
2024/01/19 17:54:30;;;;;;;49.20;24.00;;;;;;;0.53;64.19;99248.39;231501;203;153398;-55
2024/01/19 17:59:35;;;;;;;41.10;22.60;;;;;;;0.48;64.35;99256.34;231627;199;138680;-53
2024/01/19 18:04:38;;;;;;;46.40;24.10;;;;;;;0.42;64.56;99263.24;231628;202;137836;-54
2024/01/19 18:09:41;;;;;;;43.90;22.30;;;;;;;0.45;64.64;99268.27;231626;205;154528;-52
2024/01/19 18:14:45;;;;;;;45.10;24.00;;;;;;;0.48;64.51;99267.85;231380;206;138621;-55
2024/01/19 18:19:48;;;;;;;46.70;25.20;;;;;;;0.49;64.59;99278.48;231485;202;138353;-53
2024/01/19 18:24:52;;;;;;;42.50;23.40;;;;;;;0.53;64.59;99290.11;231555;198;156527;-55
2024/01/19 18:29:56;;;;;;;46.30;24.60;;;;;;;0.56;64.52;99297.39;231571;199;140299;-55
2024/01/19 18:35:00;;;;;;;55.80;27.50;;;;;;;0.51;64.77;99312.31;231667;198;141337;-54
2024/01/19 18:40:04;;;;;;;54.90;28.10;;;;;;;0.55;64.92;99319.75;231563;198;154838;-55
2024/01/19 18:45:07;;;;;;;49.60;25.80;;;;;;;0.54;65.05;99329.36;231528;199;138705;-57
2024/01/19 18:50:11;;;;;;;55.10;28.40;;;;;;;0.58;65.07;99331.21;231478;198;138727;-55
2024/01/19 18:55:14;;;;;;;54.80;27.90;;;;;;;0.64;65.03;99334.79;231464;199;155680;-55
2024/01/19 19:00:20;;;;;;;57.80;28.20;;;;;;;0.72;64.96;99344.61;231534;198;138470;-52
2024/01/19 19:05:23;;;;;;;50.20;25.00;;;;;;;0.79;64.67;99355.65;231568;198;138415;-55
2024/01/19 19:10:27;;;;;;;48.70;25.00;;;;;;;0.88;64.50;99353.04;231533;198;154377;-55
2024/01/19 19:15:32;;;;;;;44.20;22.30;;;;;;;1.06;64.12;99352.53;231543;205;138828;-53
2024/01/19 19:20:35;;;;;;;44.10;21.80;;;;;;;1.17;63.65;99355.65;231535;201;147803;-57
2024/01/19 19:25:38;;;;;;;38.90;20.00;;;;;;;1.26;63.43;99363.01;231417;203;153955;-54
2024/01/19 19:30:41;;;;;;;676.20;361.10;;;;;;;1.45;64.89;99368.93;231497;198;138781;-56
2024/01/19 19:35:45;;;;;;;44.60;24.90;;;;;;;1.80;63.56;99380.27;231643;198;137649;-54
2024/01/19 19:40:49;;;;;;;34.30;17.70;;;;;;;1.78;62.32;99396.77;231550;198;154151;-53
2024/01/19 19:45:53;;;;;;;28.00;15.30;;;;;;;1.74;61.84;99399.65;231504;198;139575;-53
2024/01/19 19:50:56;;;;;;;32.90;15.30;;;;;;;1.76;61.77;99402.06;231508;199;139138;-52
2024/01/19 19:56:00;;;;;;;29.50;13.80;;;;;;;1.76;61.38;99409.92;231468;202;153242;-53
2024/01/19 20:01:03;;;;;;;26.00;13.00;;;;;;;1.75;60.93;99418.69;231577;197;138011;-55
2024/01/19 20:06:07;;;;;;;29.50;13.70;;;;;;;1.70;60.78;99429.10;231559;198;138427;-54
2024/01/19 20:11:11;;;;;;;28.80;15.40;;;;;;;1.71;60.84;99438.54;231644;198;154421;-54
2024/01/19 20:16:14;;;;;;;26.70;13.70;;;;;;;1.67;60.66;99446.32;231533;198;139843;-55
2024/01/19 20:21:17;;;;;;;33.20;16.30;;;;;;;1.65;61.53;99444.59;231686;199;138478;-54
2024/01/19 20:26:20;;;;;;;25.30;13.60;;;;;;;1.71;60.95;99450.44;231558;203;154042;-58
2024/01/19 20:31:24;;;;;;;26.70;13.80;;;;;;;1.67;60.60;99453.47;231545;198;139283;-56
2024/01/19 20:36:28;;;;;;;26.30;13.90;;;;;;;1.61;60.49;99457.09;231615;202;138919;-55
2024/01/19 20:41:32;;;;;;;31.90;14.40;;;;;;;1.67;60.81;99461.16;231669;198;154313;-54
2024/01/19 20:46:35;;;;;;;26.90;14.90;;;;;;;1.66;60.93;99456.48;231479;198;139985;-52
2024/01/19 20:51:39;;;;;;;324.60;185.80;;;;;;;1.61;61.20;99461.80;231554;198;138870;-55
2024/01/19 20:56:42;;;;;;;59.90;31.20;;;;;;;1.76;63.57;99472.19;231448;200;153388;-54
2024/01/19 21:01:46;;;;;;;30.20;16.20;;;;;;;1.95;61.32;99478.12;231477;198;138422;-55
2024/01/19 21:06:49;;;;;;;28.90;15.30;;;;;;;1.87;60.42;99488.95;231288;198;138719;-54
2024/01/19 21:11:52;;;;;;;29.40;14.90;;;;;;;1.82;60.01;99494.64;231398;206;153252;-56
2024/01/19 21:16:55;;;;;;;29.90;15.90;;;;;;;1.67;60.05;99498.95;231663;199;138070;-55
2024/01/19 21:22:01;;;;;;;23.90;14.00;;;;;;;1.68;60.55;99501.20;231510;199;137659;-55
2024/01/19 21:27:14;;;;;;;29.70;15.40;;;;;;;1.76;60.31;99507.35;231494;203;154852;-54
2024/01/19 21:32:18;;;;;;;30.90;14.80;;;;;;;1.76;60.17;99519.94;231532;205;137956;-55
2024/01/19 21:37:21;;;;;;;29.00;14.60;;;;;;;1.78;60.02;99527.08;231629;203;138326;-54
2024/01/19 21:42:24;;;;;;;30.10;14.50;;;;;;;1.78;60.18;99531.27;231575;198;154097;-55
2024/01/19 21:47:27;;;;;;;27.20;13.50;;;;;;;1.79;60.03;99538.61;231670;205;137967;-51
2024/01/19 21:52:31;;;;;;;25.50;14.30;;;;;;;1.81;59.86;99536.11;231520;203;138350;-50
2024/01/19 21:57:35;;;;;;;29.40;14.80;;;;;;;1.84;60.05;99540.61;231555;199;153321;-52
2024/01/19 22:02:40;;;;;;;27.70;14.50;;;;;;;1.88;60.16;99550.15;231571;198;138535;-53
2024/01/19 22:07:45;;;;;;;31.90;14.90;;;;;;;1.90;60.13;99555.90;231555;199;137623;-53
2024/01/19 22:12:48;;;;;;;29.10;14.20;;;;;;;1.85;60.20;99565.09;231547;206;153321;-53
2024/01/19 22:17:51;;;;;;;34.60;14.70;;;;;;;1.79;60.58;99566.60;231537;205;137614;-54
2024/01/19 22:22:55;;;;;;;32.20;15.00;;;;;;;1.78;60.64;99567.14;231694;205;138291;-54
2024/01/19 22:27:58;;;;;;;29.90;14.10;;;;;;;1.68;60.73;99575.88;231524;198;153333;-49
2024/01/19 22:33:01;;;;;;;27.40;14.20;;;;;;;1.62;60.90;99577.71;231472;199;137253;-54
2024/01/19 22:38:05;;;;;;;28.60;14.40;;;;;;;1.62;60.95;99598.54;231577;205;138070;-54
2024/01/19 22:43:15;;;;;;;30.10;14.80;;;;;;;1.62;61.06;99590.14;231564;204;153557;-53
2024/01/19 22:48:18;;;;;;;28.90;14.10;;;;;;;1.64;60.80;99588.53;231547;202;137574;-52
2024/01/19 22:53:21;;;;;;;31.90;14.80;;;;;;;1.62;60.86;99601.17;231702;199;137368;-53
2024/01/19 22:58:26;;;;;;;27.70;14.10;;;;;;;1.60;60.77;99601.38;231520;203;153909;-54
2024/01/19 23:03:30;;;;;;;30.50;14.40;;;;;;;1.58;60.80;99606.66;231516;203;138191;-54
2024/01/19 23:08:34;;;;;;;30.90;13.20;;;;;;;1.56;60.48;99604.59;231551;198;139385;-53
2024/01/19 23:13:37;;;;;;;25.70;13.90;;;;;;;1.48;60.47;99603.66;231541;203;153538;-53
2024/01/19 23:18:44;;;;;;;30.20;14.60;;;;;;;1.41;60.45;99608.48;231539;202;138278;-52
2024/01/19 23:23:48;;;;;;;27.40;14.00;;;;;;;1.38;60.56;99603.46;231635;198;138268;-54